Time;durP1;ratioP1;P1;durP2;ratioP2;P2;SDS_P1;SDS_P2;PMS_P1;PMS_P2;Temp;Humidity;BMP_temperature;BMP_pressure;BME280_temperature;BME280_humidity;BME280_pressure;Samples;Min_cycle;Max_cycle;Signal;HPM_P1;HPM_P2
2022/07/31 00:00:08;;;;;;;3.28;1.95;;;19.10;58.10;;;;;;5045243;28;20036;-61
2022/07/31 00:02:35;;;;;;;5.63;1.88;;;19.00;58.20;;;;;;5045382;28;20074;-61
2022/07/31 00:05:01;;;;;;;3.55;2.10;;;19.00;58.00;;;;;;5026549;28;20037;-62
2022/07/31 00:07:27;;;;;;;2.10;1.90;;;19.00;58.10;;;;;;5029761;28;20057;-62
2022/07/31 00:09:54;;;;;;;4.25;2.40;;;19.00;58.20;;;;;;5049441;28;20030;-61
2022/07/31 00:12:20;;;;;;;5.55;2.10;;;19.00;58.30;;;;;;5062198;28;20017;-64
2022/07/31 00:14:47;;;;;;;2.65;2.00;;;19.00;58.30;;;;;;5031838;28;20048;-63
2022/07/31 00:17:12;;;;;;;2.05;1.90;;;19.00;58.40;;;;;;5032253;28;20038;-63
2022/07/31 00:19:38;;;;;;;2.50;1.88;;;19.00;58.40;;;;;;5053801;28;20029;-63
2022/07/31 00:22:04;;;;;;;2.97;2.17;;;19.00;58.50;;;;;;5061496;28;20040;-62
2022/07/31 00:24:30;;;;;;;4.63;1.85;;;18.90;58.30;;;;;;5032930;28;20085;-62
2022/07/31 00:26:55;;;;;;;2.78;1.80;;;18.90;58.30;;;;;;4931956;28;20041;-63
2022/07/31 00:29:21;;;;;;;3.25;2.10;;;18.90;58.30;;;;;;5050384;28;20075;-62
2022/07/31 00:31:47;;;;;;;3.85;2.28;;;18.90;58.20;;;;;;5048242;28;20101;-62
2022/07/31 00:34:12;;;;;;;4.20;2.00;;;18.90;58.30;;;;;;5044525;28;20029;-63
2022/07/31 00:36:38;;;;;;;3.15;1.95;;;18.80;58.30;;;;;;5044648;28;20036;-62
2022/07/31 00:39:04;;;;;;;2.33;2.00;;;18.80;58.30;;;;;;5029797;28;20026;-63
2022/07/31 00:41:41;;;;;;;5.75;2.20;;;18.80;58.40;;;;;;5052948;28;20029;-64
2022/07/31 00:44:07;;;;;;;4.88;2.40;;;18.70;58.90;;;;;;5026729;28;20037;-62
2022/07/31 00:46:33;;;;;;;3.92;2.17;;;18.70;58.40;;;;;;5049765;28;20045;-62
2022/07/31 00:48:58;;;;;;;3.80;1.90;;;18.70;58.60;;;;;;5042315;28;20047;-60
2022/07/31 00:51:24;;;;;;;3.35;2.20;;;18.60;58.60;;;;;;5045335;28;20108;-62
2022/07/31 00:53:50;;;;;;;2.40;2.10;;;18.60;58.60;;;;;;5039866;28;20033;-62
2022/07/31 00:56:15;;;;;;;5.60;2.67;;;18.60;58.70;;;;;;5048149;28;20056;-63
2022/07/31 00:58:41;;;;;;;3.60;2.45;;;18.60;58.80;;;;;;5036929;28;20030;-62
2022/07/31 01:01:06;;;;;;;4.38;2.40;;;18.50;58.80;;;;;;5039434;28;20037;-62
2022/07/31 01:03:32;;;;;;;5.75;2.30;;;18.50;58.80;;;;;;5048163;28;20037;-62
2022/07/31 01:05:58;;;;;;;3.58;2.20;;;18.50;59.00;;;;;;5056529;28;20045;-62
2022/07/31 01:08:23;;;;;;;5.63;2.63;;;18.40;58.90;;;;;;5034941;28;20021;-62
2022/07/31 01:11:03;;;;;;;2.45;1.85;;;18.40;59.10;;;;;;5037956;28;20817;-61
2022/07/31 01:13:40;;;;;;;2.53;2.10;;;18.40;59.20;;;;;;5034994;28;20037;-63
2022/07/31 01:16:07;;;;;;;6.22;2.15;;;18.40;59.70;;;;;;5040497;28;20063;-62
2022/07/31 01:18:36;;;;;;;3.15;2.45;;;18.30;59.20;;;;;;5032336;28;20025;-63
2022/07/31 01:21:12;;;;;;;2.22;1.77;;;18.30;59.40;;;;;;5033286;28;20041;-61
2022/07/31 01:24:10;;;;;;;3.38;2.00;;;18.30;60.50;;;;;;5033685;28;20618;-62
2022/07/31 01:26:47;;;;;;;3.03;2.08;;;18.20;59.90;;;;;;5047284;28;20045;-62
2022/07/31 01:29:24;;;;;;;3.83;2.22;;;18.20;59.90;;;;;;5034932;28;20106;-62
2022/07/31 01:32:02;;;;;;;2.72;1.92;;;18.20;59.60;;;;;;5040358;28;20045;-61
2022/07/31 01:34:35;;;;;;;2.65;2.22;;;18.10;60.10;;;;;;5026568;28;20029;-63
2022/07/31 01:37:16;;;;;;;3.30;2.13;;;18.10;59.70;;;;;;5039159;28;20064;-63
2022/07/31 01:39:48;;;;;;;2.72;2.05;;;18.10;60.40;;;;;;5028222;28;20045;-62
2022/07/31 01:42:17;;;;;;;3.63;2.63;;;18.00;60.00;;;;;;5037613;28;20733;-63
2022/07/31 01:44:46;;;;;;;4.20;2.55;;;18.00;60.10;;;;;;5028244;28;20060;-61
2022/07/31 01:47:17;;;;;;;3.28;2.30;;;18.00;60.10;;;;;;5042122;28;20098;-62
2022/07/31 01:49:44;;;;;;;5.18;2.63;;;18.00;60.40;;;;;;5041113;28;20053;-63
2022/07/31 01:52:13;;;;;;;2.40;2.20;;;17.90;60.20;;;;;;5042736;28;20089;-61
2022/07/31 01:54:39;;;;;;;3.65;1.98;;;17.90;60.50;;;;;;5054995;28;20598;-62
2022/07/31 01:57:06;;;;;;;2.50;2.20;;;17.90;60.40;;;;;;5040756;28;20101;-62
2022/07/31 01:59:34;;;;;;;2.72;2.38;;;17.90;60.60;;;;;;5041917;28;20029;-63
2022/07/31 02:02:03;;;;;;;5.05;2.35;;;17.90;60.70;;;;;;5036312;28;20022;-63
2022/07/31 02:04:30;;;;;;;3.75;2.13;;;17.90;60.80;;;;;;5040906;28;20029;-64
2022/07/31 02:06:55;;;;;;;3.42;2.40;;;17.90;60.80;;;;;;5038661;28;20174;-63
2022/07/31 02:09:23;;;;;;;5.07;2.17;;;17.80;60.90;;;;;;5039924;28;20057;-62
2022/07/31 02:11:50;;;;;;;7.35;2.58;;;17.80;61.00;;;;;;5044046;28;20068;-62
2022/07/31 02:14:18;;;;;;;2.90;2.45;;;17.80;61.20;;;;;;5031919;28;20056;-61
2022/07/31 02:16:45;;;;;;;21.52;11.32;;;17.80;61.20;;;;;;5041230;28;20041;-61
2022/07/31 02:19:13;;;;;;;14.65;7.78;;;17.80;61.20;;;;;;5037994;28;20025;-62
2022/07/31 02:21:40;;;;;;;9.48;5.68;;;17.80;61.20;;;;;;5046518;28;20082;-62
2022/07/31 02:24:06;;;;;;;5.78;3.47;;;17.80;61.10;;;;;;5049751;28;20044;-63
2022/07/31 02:26:33;;;;;;;3.53;2.92;;;17.80;61.20;;;;;;5046787;28;20045;-61
2022/07/31 02:29:00;;;;;;;5.47;2.60;;;17.80;61.20;;;;;;5050927;28;20395;-62
2022/07/31 02:31:27;;;;;;;2.55;2.35;;;17.70;61.10;;;;;;5040815;28;20518;-62
2022/07/31 02:33:53;;;;;;;4.07;2.70;;;17.70;61.10;;;;;;5031655;28;20034;-62
2022/07/31 02:36:21;;;;;;;3.72;2.50;;;17.70;61.20;;;;;;5041458;28;20026;-63
2022/07/31 02:38:48;;;;;;;3.65;2.55;;;17.60;61.40;;;;;;5044203;28;20022;-62
2022/07/31 02:41:15;;;;;;;4.00;2.67;;;17.60;61.60;;;;;;5039437;28;20037;-62
2022/07/31 02:43:43;;;;;;;4.32;2.25;;;17.50;61.50;;;;;;5040824;28;20030;-62
2022/07/31 02:46:09;;;;;;;10.68;2.58;;;17.50;61.70;;;;;;5041712;28;20093;-63
2022/07/31 02:48:36;;;;;;;3.53;2.35;;;17.50;61.80;;;;;;5044349;28;20561;-61
2022/07/31 02:51:02;;;;;;;7.50;2.40;;;17.40;62.00;;;;;;5054054;28;20037;-62
2022/07/31 02:53:29;;;;;;;3.90;2.35;;;17.40;62.00;;;;;;5036167;28;20025;-61
2022/07/31 02:55:55;;;;;;;7.28;2.30;;;17.40;62.00;;;;;;5055272;28;20044;-62
2022/07/31 02:58:21;;;;;;;3.17;2.05;;;17.30;62.00;;;;;;5033886;28;20097;-61
2022/07/31 03:00:47;;;;;;;2.47;2.28;;;17.30;62.20;;;;;;5062266;28;20033;-63
2022/07/31 03:03:12;;;;;;;4.70;2.15;;;17.30;62.30;;;;;;5033604;28;20402;-62
2022/07/31 03:05:38;;;;;;;3.13;2.20;;;17.30;62.40;;;;;;5062397;28;20025;-61
2022/07/31 03:08:04;;;;;;;3.42;2.63;;;17.30;62.50;;;;;;5037415;28;20041;-61
2022/07/31 03:10:29;;;;;;;3.35;2.50;;;17.30;62.50;;;;;;5057124;28;20045;-62
2022/07/31 03:12:56;;;;;;;3.38;2.50;;;17.20;62.60;;;;;;5037562;28;20033;-63
2022/07/31 03:15:25;;;;;;;3.78;2.80;;;17.20;62.70;;;;;;5060944;28;20060;-62
2022/07/31 03:17:53;;;;;;;3.13;2.47;;;17.20;63.00;;;;;;5054852;28;20025;-60
2022/07/31 03:20:20;;;;;;;5.78;2.40;;;17.20;63.00;;;;;;5041197;28;20053;-62
2022/07/31 03:22:45;;;;;;;2.60;2.40;;;17.10;63.00;;;;;;5063168;28;20025;-61
2022/07/31 03:25:11;;;;;;;4.40;2.53;;;17.10;62.90;;;;;;5056139;28;20055;-61
2022/07/31 03:27:37;;;;;;;4.43;2.25;;;17.10;63.00;;;;;;5047973;28;20033;-63
2022/07/31 03:30:04;;;;;;;4.70;2.50;;;17.10;63.10;;;;;;5046029;28;20456;-62
2022/07/31 03:32:29;;;;;;;5.18;2.53;;;17.10;63.10;;;;;;5044331;28;20056;-63
2022/07/31 03:34:55;;;;;;;3.40;2.38;;;17.10;63.20;;;;;;5043397;28;20030;-64
2022/07/31 03:37:21;;;;;;;2.80;2.40;;;17.10;63.30;;;;;;5036127;28;20034;-61
2022/07/31 03:39:47;;;;;;;5.53;2.33;;;17.10;63.40;;;;;;5049588;28;20040;-62
2022/07/31 03:42:13;;;;;;;2.95;2.45;;;17.10;63.40;;;;;;5040176;28;20029;-62
2022/07/31 03:44:40;;;;;;;4.00;2.50;;;17.10;63.50;;;;;;5057944;28;20076;-59
2022/07/31 03:47:07;;;;;;;3.85;2.45;;;17.10;63.70;;;;;;5039920;28;20045;-62
2022/07/31 03:49:32;;;;;;;3.45;2.35;;;17.10;63.70;;;;;;5047316;28;20053;-62
2022/07/31 03:51:58;;;;;;;3.10;2.20;;;17.10;63.70;;;;;;5033882;28;20037;-62
2022/07/31 03:54:24;;;;;;;3.38;2.13;;;17.10;63.70;;;;;;5064415;28;20032;-61
2022/07/31 03:56:51;;;;;;;2.72;2.47;;;17.10;63.70;;;;;;5044596;28;20076;-62
2022/07/31 03:59:18;;;;;;;5.32;2.72;;;17.10;63.90;;;;;;5055756;28;20029;-62
2022/07/31 04:01:45;;;;;;;5.03;2.67;;;17.10;63.90;;;;;;5030953;28;20033;-61
2022/07/31 04:04:12;;;;;;;4.15;2.45;;;17.10;63.70;;;;;;5033421;28;20090;-61
2022/07/31 04:06:38;;;;;;;5.28;2.38;;;17.20;63.60;;;;;;5038467;28;20049;-62
2022/07/31 04:09:03;;;;;;;6.15;2.70;;;17.20;63.70;;;;;;5054367;28;20036;-61
2022/07/31 04:11:29;;;;;;;4.05;2.50;;;17.20;63.90;;;;;;5049719;28;20033;-61
2022/07/31 04:13:55;;;;;;;5.78;2.65;;;17.20;64.00;;;;;;5045557;28;20048;-62
2022/07/31 04:16:21;;;;;;;6.20;2.50;;;17.20;64.80;;;;;;5030713;28;20037;-63
2022/07/31 04:18:46;;;;;;;7.05;2.13;;;17.20;64.00;;;;;;5056861;28;20056;-62
2022/07/31 04:21:12;;;;;;;2.67;2.35;;;17.20;64.00;;;;;;5044858;28;20028;-61
2022/07/31 04:23:38;;;;;;;5.28;2.13;;;17.20;63.90;;;;;;5040802;28;20061;-62
2022/07/31 04:26:04;;;;;;;2.80;2.22;;;17.20;63.90;;;;;;5042373;28;20026;-61
2022/07/31 04:28:29;;;;;;;2.80;2.35;;;17.20;64.00;;;;;;5058260;28;20060;-61
2022/07/31 04:30:55;;;;;;;3.53;2.30;;;17.20;64.80;;;;;;5036615;28;20033;-61
2022/07/31 04:33:21;;;;;;;2.72;2.20;;;17.30;64.10;;;;;;5060218;28;20137;-62
2022/07/31 04:35:47;;;;;;;5.80;2.58;;;17.20;64.10;;;;;;5050153;28;20034;-61
2022/07/31 04:38:13;;;;;;;3.90;2.35;;;17.30;64.20;;;;;;5054368;28;20025;-62
2022/07/31 04:40:38;;;;;;;3.00;2.20;;;17.30;64.20;;;;;;5046662;28;20036;-60
2022/07/31 04:43:04;;;;;;;2.13;1.90;;;17.30;64.10;;;;;;5049932;28;20045;-62
2022/07/31 04:45:30;;;;;;;7.40;2.40;;;17.30;64.10;;;;;;5035136;28;20053;-61
2022/07/31 04:47:56;;;;;;;3.65;2.53;;;17.30;64.20;;;;;;5038449;28;20048;-62
2022/07/31 04:50:22;;;;;;;5.95;2.35;;;17.40;64.50;;;;;;5049402;28;20034;-62
2022/07/31 04:52:47;;;;;;;6.05;2.90;;;17.40;64.60;;;;;;5028935;28;20032;-60
2022/07/31 04:55:13;;;;;;;6.50;2.53;;;17.50;64.70;;;;;;5042319;28;20040;-61
2022/07/31 04:57:38;;;;;;;3.28;2.38;;;17.50;64.50;;;;;;5025598;28;20041;-61
2022/07/31 05:00:05;;;;;;;2.80;2.30;;;17.60;64.50;;;;;;5042984;28;20466;-62
2022/07/31 05:02:31;;;;;;;2.53;2.30;;;17.70;64.30;;;;;;5045701;28;20048;-61
2022/07/31 05:04:57;;;;;;;3.30;2.17;;;17.70;64.00;;;;;;5039929;28;20037;-63
2022/07/31 05:07:24;;;;;;;3.45;2.20;;;17.70;63.90;;;;;;5044754;28;20052;-61
2022/07/31 05:09:50;;;;;;;4.15;2.33;;;17.80;63.90;;;;;;5032973;28;20037;-62
2022/07/31 05:12:15;;;;;;;3.42;2.53;;;17.80;63.80;;;;;;5039072;28;20053;-62
2022/07/31 05:14:41;;;;;;;3.45;2.50;;;17.80;64.00;;;;;;5038773;28;20029;-63
2022/07/31 05:17:06;;;;;;;3.58;2.45;;;17.90;64.70;;;;;;5035956;28;20051;-61
2022/07/31 05:19:32;;;;;;;3.30;2.58;;;17.90;63.90;;;;;;5025431;28;20053;-63
2022/07/31 05:21:58;;;;;;;3.65;2.85;;;18.00;64.10;;;;;;5050507;28;20034;-63
2022/07/31 05:24:24;;;;;;;3.90;2.63;;;18.00;64.20;;;;;;5033397;28;20037;-64
2022/07/31 05:26:50;;;;;;;3.00;2.38;;;18.00;64.00;;;;;;5028540;28;20037;-61
2022/07/31 05:29:15;;;;;;;5.43;2.47;;;18.10;64.00;;;;;;5036871;28;20077;-63
2022/07/31 05:31:41;;;;;;;5.20;2.58;;;18.20;64.20;;;;;;5035343;28;20064;-61
2022/07/31 05:34:06;;;;;;;2.42;2.22;;;18.20;64.40;;;;;;5037776;28;20475;-62
2022/07/31 05:36:32;;;;;;;5.60;2.25;;;18.30;64.30;;;;;;5053309;28;20048;-61
2022/07/31 05:38:58;;;;;;;2.83;2.22;;;18.40;64.20;;;;;;5038290;28;20113;-61
2022/07/31 05:41:24;;;;;;;3.35;2.25;;;18.50;63.80;;;;;;5046088;28;20052;-62
2022/07/31 05:43:49;;;;;;;3.03;2.20;;;18.60;63.40;;;;;;5046138;28;20026;-63
2022/07/31 05:46:16;;;;;;;3.67;2.70;;;18.70;63.40;;;;;;5036209;28;20042;-62
2022/07/31 05:48:42;;;;;;;4.93;2.45;;;18.80;63.40;;;;;;5047823;28;20049;-61
2022/07/31 05:51:10;;;;;;;7.03;2.25;;;18.90;63.20;;;;;;5029137;28;20036;-62
2022/07/31 05:53:36;;;;;;;2.75;2.33;;;19.00;63.00;;;;;;5046584;28;20116;-64
2022/07/31 05:56:03;;;;;;;6.80;2.33;;;19.10;62.60;;;;;;5053421;28;20041;-62
2022/07/31 05:58:28;;;;;;;9.02;2.33;;;19.10;62.50;;;;;;5054219;28;20038;-60
2022/07/31 06:00:54;;;;;;;2.78;2.17;;;19.20;62.40;;;;;;5044848;28;20032;-62
2022/07/31 06:03:26;;;;;;;7.28;2.50;;;19.30;62.30;;;;;;5058276;28;20052;-62
2022/07/31 06:05:52;;;;;;;2.92;2.33;;;19.40;62.30;;;;;;5043522;28;20083;-61
2022/07/31 06:08:18;;;;;;;4.22;2.50;;;19.60;62.10;;;;;;5045924;28;20037;-62
2022/07/31 06:10:44;;;;;;;2.53;2.28;;;19.70;61.90;;;;;;5042254;28;20044;-62
2022/07/31 06:13:10;;;;;;;4.97;2.38;;;19.80;61.70;;;;;;5031882;28;20036;-62
2022/07/31 06:15:36;;;;;;;5.10;2.20;;;20.00;61.50;;;;;;5047674;28;20060;-61
2022/07/31 06:18:02;;;;;;;3.65;2.20;;;20.20;61.30;;;;;;5024820;28;20030;-62
2022/07/31 06:20:28;;;;;;;7.18;2.20;;;20.30;60.90;;;;;;5042072;28;20388;-61
2022/07/31 06:22:54;;;;;;;4.70;2.28;;;20.50;60.60;;;;;;5030739;28;20029;-61
2022/07/31 06:25:20;;;;;;;4.18;2.97;;;20.60;60.20;;;;;;5048508;28;20041;-61
2022/07/31 06:27:46;;;;;;;3.70;2.50;;;20.80;60.10;;;;;;5043127;28;20053;-61
2022/07/31 06:30:12;;;;;;;4.35;2.45;;;21.00;59.90;;;;;;5045869;28;20073;-62
2022/07/31 06:32:38;;;;;;;4.80;2.35;;;21.20;59.70;;;;;;5037245;28;20040;-63
2022/07/31 06:35:05;;;;;;;4.38;2.42;;;21.40;59.20;;;;;;5053179;28;20030;-63
2022/07/31 06:37:31;;;;;;;4.47;2.33;;;21.50;59.40;;;;;;5050330;28;20038;-61
2022/07/31 06:39:56;;;;;;;5.75;2.45;;;21.70;58.70;;;;;;5045091;28;20105;-63
2022/07/31 06:42:24;;;;;;;7.47;2.50;;;21.80;58.70;;;;;;5046199;28;20049;-63
2022/07/31 06:44:51;;;;;;;4.15;2.15;;;21.90;58.60;;;;;;5051781;28;20499;-64
2022/07/31 06:47:22;;;;;;;5.68;2.35;;;22.00;58.60;;;;;;5044775;28;20044;-62
2022/07/31 06:49:48;;;;;;;6.43;2.28;;;22.10;58.30;;;;;;5034686;28;20040;-63
2022/07/31 06:52:14;;;;;;;4.45;2.38;;;22.20;58.30;;;;;;5058149;28;20499;-63
2022/07/31 06:54:40;;;;;;;3.33;2.35;;;22.30;58.10;;;;;;5031450;28;20121;-63
2022/07/31 06:57:07;;;;;;;2.38;2.17;;;22.40;58.00;;;;;;5043095;28;20049;-61
2022/07/31 06:59:33;;;;;;;2.55;2.30;;;22.50;57.90;;;;;;5035374;28;20055;-63
2022/07/31 07:01:58;;;;;;;4.13;2.58;;;22.60;57.80;;;;;;5052927;28;20033;-61
2022/07/31 07:04:24;;;;;;;5.00;2.70;;;22.70;57.50;;;;;;5046507;28;20037;-63
2022/07/31 07:06:50;;;;;;;4.50;2.30;;;22.70;57.40;;;;;;5044715;28;20040;-63
2022/07/31 07:09:15;;;;;;;4.85;2.28;;;22.80;57.30;;;;;;5050649;28;20037;-62
2022/07/31 07:11:41;;;;;;;6.90;2.38;;;23.00;57.30;;;;;;5048557;28;20033;-62
2022/07/31 07:14:07;;;;;;;4.45;2.42;;;23.00;57.10;;;;;;5046477;28;20037;-61
2022/07/31 07:16:32;;;;;;;2.58;1.98;;;23.10;56.40;;;;;;5048237;28;20026;-62
2022/07/31 07:18:58;;;;;;;4.72;2.58;;;23.20;56.60;;;;;;5046148;28;20057;-61
2022/07/31 07:21:24;;;;;;;2.47;2.08;;;23.30;56.30;;;;;;5050151;28;20029;-62
2022/07/31 07:23:50;;;;;;;2.70;2.10;;;23.40;56.10;;;;;;5054734;28;20026;-61
2022/07/31 07:26:15;;;;;;;4.35;2.40;;;23.40;56.20;;;;;;5043115;28;20056;-63
2022/07/31 07:28:42;;;;;;;3.75;2.28;;;23.50;56.00;;;;;;4933062;28;20038;-61
2022/07/31 07:31:08;;;;;;;4.45;2.25;;;23.60;56.00;;;;;;5028461;28;20076;-62
2022/07/31 07:33:35;;;;;;;3.17;2.20;;;23.70;56.00;;;;;;5040471;28;20030;-62
2022/07/31 07:36:01;;;;;;;5.25;2.33;;;23.80;55.80;;;;;;5056086;28;20085;-63
2022/07/31 07:38:27;;;;;;;4.32;2.20;;;23.90;55.80;;;;;;5042684;28;20041;-62
2022/07/31 07:40:52;;;;;;;4.95;2.17;;;24.00;56.10;;;;;;5044389;28;20105;-63
2022/07/31 07:43:18;;;;;;;2.83;2.22;;;24.20;55.90;;;;;;5038863;28;20129;-63
2022/07/31 07:45:44;;;;;;;4.40;2.10;;;24.50;55.80;;;;;;5056530;28;20041;-61
2022/07/31 07:48:11;;;;;;;2.08;1.88;;;24.70;55.50;;;;;;5031943;28;20057;-62
2022/07/31 07:50:36;;;;;;;3.05;2.00;;;25.00;55.50;;;;;;5047844;28;20156;-62
2022/07/31 07:53:02;;;;;;;4.32;1.90;;;25.30;55.70;;;;;;5041049;28;20037;-62
2022/07/31 07:55:28;;;;;;;4.03;2.05;;;25.50;55.20;;;;;;5042120;28;20060;-63
2022/07/31 07:57:53;;;;;;;3.78;1.90;;;25.80;54.40;;;;;;5041584;28;20089;-64
2022/07/31 08:00:19;;;;;;;4.50;1.73;;;26.10;54.30;;;;;;5031967;28;20063;-62
2022/07/31 08:02:46;;;;;;;3.25;1.90;;;26.30;53.50;;;;;;5030228;28;20044;-62
2022/07/31 08:05:11;;;;;;;8.27;2.10;;;26.50;53.10;;;;;;5036493;28;20463;-62
2022/07/31 08:07:39;;;;;;;3.90;1.92;;;26.60;52.60;;;;;;5031687;28;20033;-62
2022/07/31 08:10:06;;;;;;;1.73;1.58;;;26.70;52.20;;;;;;5036468;28;20021;-63
2022/07/31 08:12:33;;;;;;;3.88;1.55;;;26.80;51.70;;;;;;5042751;28;20464;-62
2022/07/31 08:14:59;;;;;;;2.72;1.73;;;26.90;51.70;;;;;;5053213;28;20064;-62
2022/07/31 08:17:25;;;;;;;2.85;1.63;;;27.00;51.40;;;;;;5040130;28;20037;-62
2022/07/31 08:19:51;;;;;;;3.80;1.90;;;27.10;50.90;;;;;;5038116;28;20026;-64
2022/07/31 08:22:17;;;;;;;5.53;1.75;;;27.20;50.80;;;;;;5042609;28;20029;-63
2022/07/31 08:24:42;;;;;;;3.42;1.42;;;27.30;50.40;;;;;;5041263;28;20791;-63
2022/07/31 08:27:23;;;;;;;2.83;1.70;;;27.30;50.00;;;;;;5031824;28;20113;-63
2022/07/31 08:29:59;;;;;;;4.38;1.90;;;27.30;49.20;;;;;;4992415;28;1160573;-63
2022/07/31 08:32:25;;;;;;;1.38;1.20;;;27.30;48.70;;;;;;5042703;28;20025;-63
2022/07/31 08:34:51;;;;;;;1.83;1.52;;;27.40;49.50;;;;;;5033784;28;20052;-63
2022/07/31 08:37:20;;;;;;;5.05;1.58;;;27.40;49.30;;;;;;5028773;28;20463;-63
2022/07/31 08:39:50;;;;;;;4.20;1.45;;;27.50;49.40;;;;;;5040351;28;20041;-63
2022/07/31 08:42:16;;;;;;;2.22;1.48;;;27.60;49.20;;;;;;5031833;28;20048;-62
2022/07/31 08:44:43;;;;;;;2.63;1.40;;;27.60;48.90;;;;;;5041043;28;20028;-63
2022/07/31 08:47:11;;;;;;;1.92;1.40;;;27.70;48.50;;;;;;5049207;28;20036;-64
2022/07/31 08:49:44;;;;;;;2.28;1.20;;;27.80;47.80;;;;;;5054574;28;20037;-62
2022/07/31 08:52:16;;;;;;;1.85;1.33;;;27.90;47.20;;;;;;5037355;28;20036;-62
2022/07/31 08:54:45;;;;;;;1.45;1.20;;;28.00;46.20;;;;;;5025158;28;20065;-63
2022/07/31 08:57:11;;;;;;;2.30;0.82;;;28.00;44.10;;;;;;5043436;28;20033;-62
2022/07/31 08:59:40;;;;;;;3.55;0.90;;;28.10;43.50;;;;;;5033571;28;20053;-62
2022/07/31 09:02:07;;;;;;;0.95;0.80;;;28.10;42.80;;;;;;5029913;28;20550;-63
2022/07/31 09:04:33;;;;;;;2.72;1.02;;;28.10;41.60;;;;;;5043808;28;20033;-62
2022/07/31 09:07:00;;;;;;;2.05;1.00;;;28.20;42.00;;;;;;5024312;28;20038;-63
2022/07/31 09:09:26;;;;;;;2.20;0.98;;;28.30;41.70;;;;;;5031630;28;20030;-62
2022/07/31 09:11:53;;;;;;;1.67;0.80;;;28.40;40.60;;;;;;5042462;28;20024;-61
2022/07/31 09:14:35;;;;;;;1.10;0.90;;;28.50;40.90;;;;;;5040005;28;20672;-63
2022/07/31 09:17:03;;;;;;;0.90;0.75;;;28.60;39.20;;;;;;5023853;28;20030;-63
2022/07/31 09:19:38;;;;;;;4.07;1.00;;;28.80;39.80;;;;;;5012684;28;20697;-62
2022/07/31 09:22:03;;;;;;;1.45;0.82;;;28.90;38.30;;;;;;5019747;28;20021;-61
2022/07/31 09:24:32;;;;;;;1.50;1.00;;;29.00;39.70;;;;;;5024795;28;20040;-61
2022/07/31 09:27:04;;;;;;;1.30;0.77;;;29.00;37.50;;;;;;5039219;28;20037;-63
2022/07/31 09:29:33;;;;;;;3.85;1.10;;;29.00;37.00;;;;;;5036832;28;20139;-64
2022/07/31 09:32:18;;;;;;;2.58;1.00;;;29.00;36.80;;;;;;5042992;28;20040;-61
2022/07/31 09:34:45;;;;;;;2.47;1.10;;;28.90;34.50;;;;;;5030877;28;20030;-62
2022/07/31 09:37:16;;;;;;;3.88;0.95;;;28.80;36.30;;;;;;5036991;28;20028;-62
2022/07/31 09:39:51;;;;;;;1.23;0.88;;;28.60;36.60;;;;;;5037617;28;20189;-61
2022/07/31 09:42:17;;;;;;;3.38;1.00;;;28.60;35.70;;;;;;5031523;28;20107;-63
2022/07/31 09:44:46;;;;;;;3.38;1.10;;;28.50;36.40;;;;;;5023239;28;20086;-61
2022/07/31 09:47:27;;;;;;;1.75;1.13;;;28.50;36.50;;;;;;5031733;28;20059;-63
2022/07/31 09:49:57;;;;;;;2.22;1.10;;;28.40;33.60;;;;;;5058776;28;20078;-62
2022/07/31 09:52:24;;;;;;;3.15;0.95;;;28.50;36.20;;;;;;5038098;28;20026;-63
2022/07/31 09:55:11;;;;;;;2.65;0.90;;;28.40;37.10;;;;;;5029050;28;20025;-62
2022/07/31 09:57:38;;;;;;;1.70;0.90;;;28.50;36.60;;;;;;5035449;28;20120;-62
2022/07/31 10:00:07;;;;;;;1.42;0.85;;;28.50;36.80;;;;;;5041032;28;20026;-63
2022/07/31 10:02:37;;;;;;;3.88;1.20;;;28.60;36.70;;;;;;5038562;28;20037;-62
2022/07/31 10:05:04;;;;;;;2.72;1.48;;;28.60;36.40;;;;;;5034527;28;20029;-62
2022/07/31 10:07:34;;;;;;;4.07;1.00;;;28.60;35.70;;;;;;5042027;28;20039;-62
2022/07/31 10:10:01;;;;;;;2.22;0.82;;;28.70;36.30;;;;;;5023357;28;20666;-62
2022/07/31 10:12:29;;;;;;;1.45;0.85;;;28.70;35.80;;;;;;5039469;28;20034;-62
2022/07/31 10:15:00;;;;;;;3.38;1.00;;;28.70;36.10;;;;;;5034162;28;20148;-62
2022/07/31 10:17:30;;;;;;;1.83;1.20;;;28.70;35.30;;;;;;5043673;28;20037;-62
2022/07/31 10:20:01;;;;;;;3.10;1.33;;;28.80;35.00;;;;;;5030254;28;20129;-63
2022/07/31 10:22:34;;;;;;;1.92;0.93;;;28.80;35.30;;;;;;5037654;28;20033;-61
2022/07/31 10:25:01;;;;;;;2.95;1.25;;;28.90;35.20;;;;;;5046851;28;20506;-61
2022/07/31 10:27:28;;;;;;;1.50;1.10;;;28.90;34.80;;;;;;4977382;28;20036;-62
2022/07/31 10:29:55;;;;;;;1.65;1.08;;;29.00;35.10;;;;;;5036396;28;20049;-60
2022/07/31 10:32:21;;;;;;;2.75;0.95;;;29.00;34.60;;;;;;5036930;28;20072;-63
2022/07/31 10:34:48;;;;;;;1.98;0.93;;;29.10;35.00;;;;;;5031626;28;20038;-59
2022/07/31 10:37:19;;;;;;;2.22;1.00;;;29.10;35.50;;;;;;5025677;28;20030;-61
2022/07/31 10:40:04;;;;;;;5.07;1.25;;;29.20;34.60;;;;;;5062470;28;20044;-60
2022/07/31 10:42:32;;;;;;;3.85;1.10;;;29.30;33.20;;;;;;5036796;28;20040;-61
2022/07/31 10:45:12;;;;;;;3.83;1.15;;;29.50;33.80;;;;;;5044302;28;20026;-62
2022/07/31 10:47:38;;;;;;;2.05;1.15;;;29.50;31.90;;;;;;5038783;28;20049;-60
2022/07/31 10:50:05;;;;;;;2.38;0.82;;;29.60;33.50;;;;;;5039935;28;20033;-61
2022/07/31 10:52:33;;;;;;;1.48;0.98;;;29.70;33.60;;;;;;5044120;28;20029;-62
2022/07/31 10:55:02;;;;;;;0.93;0.80;;;29.70;33.80;;;;;;5024415;28;20037;-61
2022/07/31 10:57:33;;;;;;;3.03;1.10;;;29.80;33.40;;;;;;5026671;28;20025;-60
2022/07/31 11:00:13;;;;;;;1.00;0.90;;;29.80;32.70;;;;;;5029710;28;20044;-61
2022/07/31 11:02:39;;;;;;;1.48;0.68;;;29.80;31.60;;;;;;5042895;28;20022;-61
2022/07/31 11:05:15;;;;;;;1.67;0.80;;;29.90;33.50;;;;;;5036625;28;20717;-62
2022/07/31 11:07:42;;;;;;;0.60;0.60;;;30.00;32.80;;;;;;5044051;28;20874;-62
2022/07/31 11:10:16;;;;;;;1.25;0.70;;;30.20;32.80;;;;;;5041589;28;20068;-61
2022/07/31 11:12:42;;;;;;;1.30;0.70;;;30.30;30.60;;;;;;5033931;28;20025;-60
2022/07/31 11:15:22;;;;;;;1.10;0.70;;;30.50;31.60;;;;;;5030093;28;20034;-62
2022/07/31 11:17:48;;;;;;;1.02;0.68;;;30.50;30.20;;;;;;5033598;28;20108;-62
2022/07/31 11:20:24;;;;;;;1.05;0.50;;;30.60;31.50;;;;;;5030266;28;20037;-62
2022/07/31 11:23:02;;;;;;;1.90;0.70;;;30.70;31.30;;;;;;5029536;28;20022;-62
2022/07/31 11:25:29;;;;;;;1.98;0.70;;;30.80;30.40;;;;;;5035854;28;20113;-62
2022/07/31 11:27:57;;;;;;;1.35;0.63;;;31.00;31.80;;;;;;5034601;28;20124;-61
2022/07/31 11:30:23;;;;;;;1.42;0.60;;;31.10;31.00;;;;;;5023518;28;20086;-62
2022/07/31 11:32:51;;;;;;;1.88;0.73;;;31.20;32.00;;;;;;5027628;28;20029;-60
2022/07/31 11:35:43;;;;;;;1.55;0.68;;;31.30;30.80;;;;;;5036070;28;20030;-60
2022/07/31 11:38:09;;;;;;;1.05;0.60;;;31.40;30.10;;;;;;5032988;28;20084;-62
2022/07/31 11:40:35;;;;;;;6.03;0.63;;;31.50;30.10;;;;;;5037149;28;20042;-61
2022/07/31 11:43:00;;;;;;;1.05;0.60;;;31.40;30.20;;;;;;5049489;28;20090;-61
2022/07/31 11:45:26;;;;;;;0.55;0.50;;;31.40;30.90;;;;;;5045995;28;20511;-60
2022/07/31 11:47:52;;;;;;;1.05;0.60;;;31.40;31.00;;;;;;5042176;28;20052;-62
2022/07/31 11:50:17;;;;;;;2.78;1.10;;;31.50;31.60;;;;;;5043117;28;20098;-60
2022/07/31 11:52:43;;;;;;;0.93;0.55;;;31.50;31.30;;;;;;5041680;28;20021;-60
2022/07/31 11:55:14;;;;;;;3.13;0.60;;;31.70;33.00;;;;;;5030100;28;20052;-62
2022/07/31 11:57:41;;;;;;;0.90;0.77;;;31.80;32.40;;;;;;5041609;28;20084;-62
2022/07/31 12:00:15;;;;;;;1.65;0.70;;;31.90;31.50;;;;;;5041134;28;20040;-60
2022/07/31 12:02:42;;;;;;;4.65;0.80;;;32.00;30.70;;;;;;5035686;28;20067;-62
2022/07/31 12:05:11;;;;;;;2.25;0.80;;;32.00;31.00;;;;;;5045614;28;20380;-62
2022/07/31 12:07:39;;;;;;;5.20;0.82;;;32.10;30.90;;;;;;5038154;28;20101;-62
2022/07/31 12:10:06;;;;;;;1.55;0.80;;;32.10;30.90;;;;;;5048651;28;20025;-60
2022/07/31 12:12:32;;;;;;;1.10;0.60;;;32.10;30.30;;;;;;5046412;28;20028;-62
2022/07/31 12:14:58;;;;;;;0.75;0.50;;;32.10;30.20;;;;;;5032904;28;20026;-61
2022/07/31 12:17:23;;;;;;;1.35;0.60;;;32.10;30.90;;;;;;5043265;28;20187;-62
2022/07/31 12:19:49;;;;;;;2.08;0.60;;;32.10;30.00;;;;;;5041331;28;20037;-61
2022/07/31 12:22:19;;;;;;;0.82;0.43;;;32.10;30.20;;;;;;5041890;28;20041;-61
2022/07/31 12:24:46;;;;;;;3.55;0.77;;;32.10;30.30;;;;;;5037012;28;20057;-60
2022/07/31 12:27:18;;;;;;;1.40;0.60;;;32.10;29.90;;;;;;5043506;28;20041;-62
2022/07/31 12:29:44;;;;;;;4.28;0.70;;;32.00;29.70;;;;;;5025471;28;20161;-63
2022/07/31 12:32:09;;;;;;;1.90;0.80;;;32.10;30.60;;;;;;5027711;28;20555;-64
2022/07/31 12:34:40;;;;;;;2.75;0.80;;;32.10;30.70;;;;;;5033368;28;20037;-61
2022/07/31 12:37:08;;;;;;;2.70;0.95;;;32.10;29.40;;;;;;5042141;28;20056;-61
2022/07/31 12:39:49;;;;;;;2.63;0.73;;;32.10;29.50;;;;;;5038795;28;20030;-62
2022/07/31 12:42:22;;;;;;;1.17;0.70;;;31.90;29.50;;;;;;5028464;28;20034;-60
2022/07/31 12:44:48;;;;;;;0.70;0.60;;;31.80;28.90;;;;;;5044251;28;20030;-60
2022/07/31 12:47:25;;;;;;;3.22;0.60;;;31.60;30.20;;;;;;5029358;28;20177;-63